Archival Weather

Fukuoka

Fukuoka, Japan (RJFF)

Report from: Tuesday, August 16, 2022 2:30 AM JST
Current time: Sunday, November 27, 2022 6:13 PM JST

Current weather
Weather history
Weather forecast

Temperature29.0°C (84.2°F)
Heat index34.6°C (94.3°F)
Dew point25.0°C (77.0°F)
Winds 7 kts (3.6 m/s, 8.1 mph) South (170°)
Visibility6.2 mi. (10 km)
Clouds Few clouds 3,600 ft. (1,097 m)
Scattered clouds 4,200 ft. (1,280 m)
Ceiling: Broken clouds 6,000 ft. (1,829 m)
Altimeter29.71 in.Hg (1006 mB)
Relative humidity79 %
Density altitude2,275 ft. (693 m)
Remarks Fully automated report
No significant changes expected in the next two hours
Towering cumulus clouds observed southeast moving northeast
Flight conditions Visual Meteorological Conditions
Raw dataRJFF 151730Z AUTO 17007KT 9999 FEW036 SCT042 BKN060 //////TCU 29/25 Q1006 NOSIG RMK A2971 TCU 40KM SE MOV NE
An error has occurred. This application may no longer respond until reloaded. Reload 🗙